Bermuda Run, North Carolina
Current Conditions -  °F | °C
As of 4:54 AM on Sunday 25 Jan 2015 (Local Time) from KINT Reporting Station
Clear Clear  
Wind Chill: 27°   Ceiling: Unl
Heat Index: 27°   Visibility: 10mi
Dew Point: 22°   Wind: 3mph
Humidity: 81%   Direction: 120°ESE
Pressure: 29.87"   Gusts: NA
Location:  36.0107°N, 80.4503°W
Report Text: KINT 250954Z AUTO 12003KT 10SM CLR M03/M06 A2987 RMK AO2 SLP117 T10281056
Loading
Personal Weather Stations






























Interactive Weather Map New forecast layout! Learn more

10-Day Weather Forecast

Advertisements
Track Severe Weather on mobile